Liberec, Czech Republic
Current Conditions -  °F | °C
As of 10:00 AM on Thursday 18 Dec 2014 (Local Time) from LKKB Reporting Station
Clear Clear  
Wind Chill: 38°   Ceiling: Unl
Heat Index: 45°   Visibility: 6mi
Dew Point: 41°   Wind: 15mph
Humidity: 87%   Direction: 230°SW
Pressure: 29.91"   Gusts: NA
Location:  50.78°N, 15.06°E
Report Text: LKKB 180800Z 23013KT CAVOK 07/05 Q1013 NOSIG
Loading
Personal Weather Stations






























Interactive Weather Map New forecast layout! Learn more

10-Day Weather Forecast

Advertisements
Track Severe Weather on mobile